Time;durP1;ratioP1;P1;durP2;ratioP2;P2;SDS_P1;SDS_P2;PMS_P1;PMS_P2;Temp;Humidity;BMP_temperature;BMP_pressure;BME280_temperature;BME280_humidity;BME280_pressure;Samples;Min_cycle;Max_cycle;Signal;HPM_P1;HPM_P2
2021/07/23 00:00:52;;;;;;;14.77;12.73;;;589.70;1715.20;;;;;;5073226;28;20056;-72
2021/07/23 00:03:18;;;;;;;21.35;13.93;;;589.70;1689.60;;;;;;5073314;28;20053;-71
2021/07/23 00:05:44;;;;;;;23.50;16.02;;;589.70;1715.20;;;;;;5073420;28;20451;-72
2021/07/23 00:08:10;;;;;;;32.63;19.13;;;589.60;1740.80;;;;;;5073349;28;20021;-71
2021/07/23 00:10:36;;;;;;;31.95;22.55;;;589.60;1740.80;;;;;;5076919;28;20453;-71
2021/07/23 00:13:02;;;;;;;33.17;19.98;;;589.50;1740.80;;;;;;5077173;28;20107;-71
2021/07/23 00:15:28;;;;;;;24.38;16.38;;;589.50;1766.40;;;;;;5076933;28;20484;-72
2021/07/23 00:17:54;;;;;;;22.40;14.70;;;589.50;1740.80;;;;;;5076868;28;20027;-71
2021/07/23 00:20:20;;;;;;;27.95;18.98;;;589.40;1766.40;;;;;;5077037;28;20025;-71
2021/07/23 00:22:46;;;;;;;29.52;16.08;;;589.40;1766.40;;;;;;5076551;28;20035;-72
2021/07/23 00:25:12;;;;;;;25.20;14.05;;;589.40;1766.40;;;;;;5076588;28;20415;-72
2021/07/23 00:27:38;;;;;;;20.52;14.38;;;589.30;1766.40;;;;;;5076613;28;20067;-72
2021/07/23 00:30:07;;;;;;;17.55;13.75;;;589.20;1740.80;;;;;;5076567;28;20024;-72
2021/07/23 00:32:36;;;;;;;17.23;12.82;;;589.30;1766.40;;;;;;5076560;28;20020;-72
2021/07/23 00:35:02;;;;;;;18.33;13.23;;;589.30;1740.80;;;;;;5076343;28;20056;-72
2021/07/23 00:37:28;;;;;;;15.32;12.77;;;589.30;1740.80;;;;;;5076387;28;20024;-72
2021/07/23 00:39:54;;;;;;;16.48;13.43;;;589.30;1715.20;;;;;;5076320;28;20476;-72
2021/07/23 00:42:19;;;;;;;17.73;13.00;;;589.20;1715.20;;;;;;5076396;28;20476;-73
2021/07/23 00:44:45;;;;;;;15.85;12.80;;;589.20;1715.20;;;;;;5057603;28;20024;-72
2021/07/23 00:47:12;;;;;;;17.80;12.20;;;589.20;1715.20;;;;;;5076111;28;20021;-73
2021/07/23 00:49:38;;;;;;;17.13;14.05;;;589.30;1715.20;;;;;;5076132;28;20077;-72
2021/07/23 00:52:04;;;;;;;17.52;12.93;;;589.20;1715.20;;;;;;5075899;28;20141;-72
2021/07/23 00:54:30;;;;;;;16.20;13.40;;;589.10;1715.20;;;;;;5057991;28;20036;-71
2021/07/23 00:56:57;;;;;;;18.15;13.05;;;589.10;1740.80;;;;;;5075686;28;20066;-73
2021/07/23 00:59:23;;;;;;;18.52;12.90;;;589.00;1740.80;;;;;;5075809;28;20033;-72
2021/07/23 01:01:49;;;;;;;18.60;12.75;;;589.00;1740.80;;;;;;5075422;28;20482;-72
2021/07/23 01:04:15;;;;;;;17.75;13.40;;;589.00;1740.80;;;;;;5075569;28;20052;-72
2021/07/23 01:06:41;;;;;;;16.13;14.43;;;589.00;1740.80;;;;;;5075742;28;20384;-72
2021/07/23 01:09:07;;;;;;;25.30;13.30;;;588.90;1740.80;;;;;;5075553;28;20029;-71
2021/07/23 01:11:34;;;;;;;19.48;13.80;;;588.90;1766.40;;;;;;5075706;28;20095;-71
2021/07/23 01:14:01;;;;;;;18.52;13.10;;;588.90;1792.00;;;;;;5075894;28;20025;-71
2021/07/23 01:16:27;;;;;;;16.65;12.60;;;588.80;1792.00;;;;;;5057975;28;20090;-71
2021/07/23 01:18:53;;;;;;;15.07;12.85;;;588.80;1766.40;;;;;;5075519;28;20484;-72
2021/07/23 01:21:19;;;;;;;18.58;13.23;;;588.80;1792.00;;;;;;5075268;28;20024;-72
2021/07/23 01:23:46;;;;;;;24.10;13.70;;;588.80;1792.00;;;;;;5075561;28;20080;-72
2021/07/23 01:26:12;;;;;;;21.23;14.45;;;564.10;1792.00;;;;;;5074332;28;20024;-72
2021/07/23 01:28:38;;;;;;;21.55;13.20;;;564.10;1792.00;;;;;;5058375;28;20051;-72
2021/07/23 01:31:04;;;;;;;16.40;12.15;;;564.00;1817.60;;;;;;5075388;28;20032;-72
2021/07/23 01:33:31;;;;;;;15.35;11.77;;;564.00;1792.00;;;;;;5075373;28;20021;-72
2021/07/23 01:35:58;;;;;;;14.77;10.95;;;563.90;1766.40;;;;;;5075598;28;20027;-72
2021/07/23 01:38:28;;;;;;;18.17;11.52;;;563.90;1766.40;;;;;;5075339;28;20047;-71
2021/07/23 01:40:55;;;;;;;14.63;11.45;;;564.00;1766.40;;;;;;5057579;28;20081;-71
2021/07/23 01:43:23;;;;;;;12.02;10.43;;;563.90;1766.40;;;;;;5075451;28;20017;-72
2021/07/23 01:45:49;;;;;;;20.83;12.35;;;563.90;1766.40;;;;;;5075313;28;20039;-71
2021/07/23 01:48:14;;;;;;;24.27;18.88;;;563.90;1766.40;;;;;;5075249;28;20021;-71
2021/07/23 01:50:40;;;;;;;32.97;19.90;;;563.80;1766.40;;;;;;5075430;28;20102;-73
2021/07/23 01:53:09;;;;;;;25.55;17.73;;;563.70;1792.00;;;;;;5075184;28;20025;-72
2021/07/23 01:55:35;;;;;;;21.70;14.65;;;563.70;1792.00;;;;;;5074743;28;20047;-72
2021/07/23 01:58:01;;;;;;;15.50;12.40;;;563.70;1792.00;;;;;;5075097;28;20111;-71
2021/07/23 02:00:26;;;;;;;19.45;13.63;;;563.70;1817.60;;;;;;5075037;28;20074;-71
2021/07/23 02:02:52;;;;;;;14.85;12.27;;;563.70;1792.00;;;;;;5074932;28;20069;-72
2021/07/23 02:05:18;;;;;;;18.15;13.05;;;563.70;1792.00;;;;;;5075021;28;20063;-71
2021/07/23 02:07:44;;;;;;;19.73;13.65;;;563.70;1792.00;;;;;;5074781;28;20480;-71
2021/07/23 02:10:10;;;;;;;17.73;14.35;;;563.70;1817.60;;;;;;5074754;28;20422;-72
2021/07/23 02:12:36;;;;;;;20.58;15.38;;;563.60;1817.60;;;;;;5074714;28;20025;-71
2021/07/23 02:15:03;;;;;;;19.55;15.32;;;563.60;1817.60;;;;;;5074658;28;20032;-71
2021/07/23 02:17:29;;;;;;;21.67;13.45;;;563.60;1817.60;;;;;;5074670;28;20422;-71
2021/07/23 02:19:55;;;;;;;15.35;12.45;;;563.60;1817.60;;;;;;5074531;28;20100;-71
2021/07/23 02:22:20;;;;;;;16.80;12.35;;;563.60;1817.60;;;;;;5074433;28;20477;-71
2021/07/23 02:24:46;;;;;;;23.90;16.85;;;563.60;1817.60;;;;;;5074402;28;20056;-71
2021/07/23 02:27:12;;;;;;;33.85;19.38;;;563.60;1843.20;;;;;;5074475;28;20017;-71
2021/07/23 02:29:38;;;;;;;63.03;40.85;;;563.40;1843.20;;;;;;5074690;28;20484;-71
2021/07/23 02:32:05;;;;;;;53.03;34.10;;;563.40;1843.20;;;;;;5073481;28;20028;-71
2021/07/23 02:34:32;;;;;;;25.92;16.23;;;563.50;1843.20;;;;;;5074049;28;20484;-71
2021/07/23 02:36:58;;;;;;;23.92;16.02;;;563.50;1843.20;;;;;;5074103;28;20070;-71
2021/07/23 02:39:25;;;;;;;20.83;15.45;;;563.50;1843.20;;;;;;5074066;28;20062;-71
2021/07/23 02:41:51;;;;;;;21.30;13.32;;;563.50;1843.20;;;;;;5056146;28;20024;-71
2021/07/23 02:44:17;;;;;;;17.48;12.18;;;563.50;1843.20;;;;;;5073957;28;20480;-71
2021/07/23 02:46:44;;;;;;;18.92;14.30;;;563.40;1843.20;;;;;;5074448;28;20036;-71
2021/07/23 02:49:09;;;;;;;21.48;13.43;;;563.40;1868.80;;;;;;5074193;28;20062;-71
2021/07/23 02:51:35;;;;;;;13.85;11.15;;;563.30;1868.80;;;;;;5074121;28;20024;-71
2021/07/23 02:54:01;;;;;;;15.48;11.73;;;563.30;1868.80;;;;;;5074189;28;20377;-71
2021/07/23 02:56:27;;;;;;;15.45;11.32;;;563.30;1868.80;;;;;;5073958;28;20052;-71
2021/07/23 02:58:53;;;;;;;17.65;12.50;;;563.20;1868.80;;;;;;5074028;28;20035;-71
2021/07/23 03:01:19;;;;;;;19.00;13.07;;;563.30;1868.80;;;;;;5073903;28;20503;-71
2021/07/23 03:03:45;;;;;;;15.15;12.32;;;563.20;1868.80;;;;;;5073893;28;20028;-72
2021/07/23 03:06:11;;;;;;;14.98;11.38;;;563.20;1868.80;;;;;;5074066;28;20023;-72
2021/07/23 03:08:37;;;;;;;16.45;12.35;;;563.30;1868.80;;;;;;5056129;28;20465;-71
2021/07/23 03:11:03;;;;;;;24.27;12.00;;;563.20;1868.80;;;;;;5073944;28;20099;-71
2021/07/23 03:13:30;;;;;;;14.38;11.52;;;563.20;1868.80;;;;;;5073597;28;20025;-71
2021/07/23 03:15:56;;;;;;;13.63;11.00;;;563.20;1868.80;;;;;;5073711;28;20045;-71
2021/07/23 03:18:22;;;;;;;18.08;11.93;;;563.20;1894.40;;;;;;5073826;28;20025;-71
2021/07/23 03:20:47;;;;;;;16.90;11.05;;;563.20;1868.80;;;;;;5074158;28;20052;-71
2021/07/23 03:23:13;;;;;;;17.10;12.32;;;563.20;1868.80;;;;;;5074085;28;20028;-71
2021/07/23 03:25:39;;;;;;;14.07;12.35;;;563.20;1894.40;;;;;;5073892;28;20054;-71
2021/07/23 03:28:06;;;;;;;19.25;13.10;;;563.20;1868.80;;;;;;5073413;28;20039;-71
2021/07/23 03:30:35;;;;;;;21.10;13.02;;;563.20;1868.80;;;;;;5073502;28;20020;-71
2021/07/23 03:33:01;;;;;;;17.58;13.73;;;563.20;1894.40;;;;;;5073375;28;20035;-71
2021/07/23 03:35:28;;;;;;;20.13;14.82;;;538.50;1843.20;;;;;;5073282;28;20033;-71
2021/07/23 03:37:54;;;;;;;20.20;13.85;;;538.50;1868.80;;;;;;5073323;28;20027;-71
2021/07/23 03:40:20;;;;;;;20.60;15.45;;;538.40;1868.80;;;;;;5073529;28;20440;-71
2021/07/23 03:42:46;;;;;;;21.30;15.02;;;538.40;1868.80;;;;;;5074498;28;20021;-71
2021/07/23 03:45:11;;;;;;;22.30;15.38;;;538.30;1894.40;;;;;;5077394;28;20048;-71
2021/07/23 03:47:37;;;;;;;23.40;14.57;;;538.40;1894.40;;;;;;5077649;28;20082;-71
2021/07/23 03:50:04;;;;;;;21.40;15.05;;;538.40;1894.40;;;;;;5077357;28;20029;-71
2021/07/23 03:52:29;;;;;;;24.33;15.77;;;538.40;1894.40;;;;;;5077270;28;20070;-71
2021/07/23 03:54:55;;;;;;;20.70;14.60;;;538.40;1894.40;;;;;;5077267;28;20512;-71
2021/07/23 03:57:21;;;;;;;20.65;14.60;;;538.30;1920.00;;;;;;5076951;28;20067;-71
2021/07/23 03:59:47;;;;;;;16.75;14.27;;;538.30;1894.40;;;;;;5077496;28;20032;-71
2021/07/23 04:02:13;;;;;;;17.40;13.88;;;538.40;1894.40;;;;;;5077313;28;20028;-71
2021/07/23 04:04:39;;;;;;;21.00;14.70;;;538.40;1894.40;;;;;;5075862;28;20069;-71
2021/07/23 04:07:05;;;;;;;18.73;14.70;;;538.40;1920.00;;;;;;5076969;28;20052;-71
2021/07/23 04:09:31;;;;;;;18.27;14.43;;;538.40;1894.40;;;;;;5076895;28;20021;-71
2021/07/23 04:11:57;;;;;;;21.17;14.40;;;538.40;1894.40;;;;;;5077040;28;20099;-71
2021/07/23 04:14:23;;;;;;;25.15;14.82;;;538.40;1894.40;;;;;;5076773;28;20090;-72
2021/07/23 04:16:49;;;;;;;19.00;13.82;;;538.40;1894.40;;;;;;5076534;28;20021;-71
2021/07/23 04:19:16;;;;;;;16.48;13.25;;;538.40;1894.40;;;;;;5076603;28;20016;-71
2021/07/23 04:21:42;;;;;;;22.50;14.43;;;538.50;1894.40;;;;;;5076631;28;20017;-72
2021/07/23 04:24:08;;;;;;;18.05;13.18;;;538.50;1868.80;;;;;;5075493;28;20078;-72
2021/07/23 04:26:35;;;;;;;15.27;13.13;;;538.50;1894.40;;;;;;5076682;28;20028;-72
2021/07/23 04:29:01;;;;;;;17.02;14.38;;;563.20;1894.40;;;;;;5076912;28;20415;-71
2021/07/23 04:31:27;;;;;;;23.73;14.80;;;563.20;1894.40;;;;;;5076242;28;20082;-72
2021/07/23 04:33:59;;;;;;;16.83;13.95;;;563.20;1894.40;;;;;;5076201;28;20070;-71
2021/07/23 04:36:26;;;;;;;18.83;13.75;;;563.20;1894.40;;;;;;5076445;28;20091;-72
2021/07/23 04:38:52;;;;;;;18.00;14.82;;;563.20;1894.40;;;;;;5076233;28;20024;-72
2021/07/23 04:41:18;;;;;;;23.73;14.95;;;563.30;1894.40;;;;;;5058168;28;20020;-72
2021/07/23 04:43:44;;;;;;;17.48;14.15;;;563.20;1868.80;;;;;;5076141;28;20464;-71
2021/07/23 04:46:10;;;;;;;17.85;14.68;;;563.30;1868.80;;;;;;5076103;28;20029;-72
2021/07/23 04:48:36;;;;;;;21.05;15.35;;;563.30;1894.40;;;;;;5058012;28;20380;-71
2021/07/23 04:51:05;;;;;;;20.38;15.05;;;563.30;1868.80;;;;;;5076127;28;20028;-71
2021/07/23 04:53:32;;;;;;;18.05;14.95;;;563.30;1868.80;;;;;;5076020;28;20024;-72
2021/07/23 04:56:04;;;;;;;19.40;14.20;;;563.40;1868.80;;;;;;5075073;28;20047;-72
2021/07/23 04:58:30;;;;;;;20.43;15.23;;;563.50;1868.80;;;;;;5076073;28;20478;-73
2021/07/23 05:00:56;;;;;;;18.25;13.93;;;563.50;1843.20;;;;;;5076009;28;20025;-71
2021/07/23 05:03:34;;;;;;;22.38;13.75;;;563.50;1843.20;;;;;;5075949;28;20377;-71
2021/07/23 05:06:01;;;;;;;18.00;14.82;;;563.50;1843.20;;;;;;5076184;28;20423;-71
2021/07/23 05:08:27;;;;;;;23.70;13.70;;;563.60;1843.20;;;;;;5075848;28;20099;-72
2021/07/23 05:10:53;;;;;;;19.13;13.27;;;563.60;1843.20;;;;;;5076296;28;20047;-71
2021/07/23 05:13:21;;;;;;;20.00;13.38;;;563.60;1817.60;;;;;;5075708;28;20416;-71
2021/07/23 05:15:48;;;;;;;20.15;13.63;;;563.70;1817.60;;;;;;5075494;28;20362;-71
2021/07/23 05:18:15;;;;;;;19.23;13.30;;;563.70;1817.60;;;;;;5075633;28;20382;-72
2021/07/23 05:20:43;;;;;;;16.20;13.25;;;563.70;1817.60;;;;;;5075562;28;20070;-71
2021/07/23 05:23:09;;;;;;;15.55;12.32;;;563.70;1817.60;;;;;;5057587;28;20376;-72
2021/07/23 05:25:36;;;;;;;16.70;11.45;;;563.70;1817.60;;;;;;5075508;28;20457;-71
2021/07/23 05:28:02;;;;;;;15.00;11.30;;;563.80;1792.00;;;;;;5075452;28;20024;-72
2021/07/23 05:30:28;;;;;;;15.65;12.02;;;563.90;1792.00;;;;;;5057425;28;20028;-72
2021/07/23 05:32:54;;;;;;;12.85;11.50;;;563.90;1766.40;;;;;;5075322;28;20028;-72
2021/07/23 05:35:20;;;;;;;18.40;11.82;;;563.90;1766.40;;;;;;5075548;28;20387;-72
2021/07/23 05:37:46;;;;;;;18.15;11.43;;;563.90;1766.40;;;;;;5075289;28;20021;-71
2021/07/23 05:40:12;;;;;;;18.23;11.32;;;563.90;1766.40;;;;;;5075153;28;20032;-72
2021/07/23 05:42:38;;;;;;;19.63;11.43;;;563.90;1766.40;;;;;;5075217;28;20017;-71
2021/07/23 05:45:05;;;;;;;15.50;11.18;;;563.90;1766.40;;;;;;5075132;28;20077;-71
2021/07/23 05:47:31;;;;;;;20.13;12.38;;;564.10;1766.40;;;;;;5075222;28;20071;-71
2021/07/23 05:49:57;;;;;;;23.38;11.98;;;564.00;1766.40;;;;;;5075049;28;20350;-71
2021/07/23 05:52:22;;;;;;;14.07;11.77;;;564.00;1766.40;;;;;;5075374;28;20047;-71
2021/07/23 05:54:48;;;;;;;17.83;11.90;;;564.00;1766.40;;;;;;5074876;28;20036;-72
2021/07/23 05:57:14;;;;;;;20.65;12.25;;;564.10;1740.80;;;;;;5074836;28;20087;-71
2021/07/23 05:59:40;;;;;;;21.08;11.63;;;564.10;1740.80;;;;;;5075088;28;20028;-71
2021/07/23 06:02:06;;;;;;;22.38;11.77;;;588.80;1740.80;;;;;;5074669;28;20052;-71
2021/07/23 06:04:34;;;;;;;17.08;11.30;;;588.80;1740.80;;;;;;5074533;28;20113;-71
2021/07/23 06:07:04;;;;;;;21.05;11.88;;;588.80;1740.80;;;;;;5073583;28;20111;-71
2021/07/23 06:09:31;;;;;;;21.17;12.18;;;588.90;1740.80;;;;;;5074760;28;20075;-72
2021/07/23 06:11:57;;;;;;;19.23;12.00;;;588.90;1740.80;;;;;;5074526;28;20078;-71
2021/07/23 06:14:23;;;;;;;19.75;11.68;;;588.90;1740.80;;;;;;5074352;28;20040;-72
2021/07/23 06:16:49;;;;;;;19.27;12.05;;;589.00;1740.80;;;;;;5074568;28;20024;-72
2021/07/23 06:19:15;;;;;;;19.98;14.07;;;589.00;1740.80;;;;;;5056487;28;20427;-72
2021/07/23 06:21:41;;;;;;;18.65;12.27;;;589.10;1740.80;;;;;;5073748;28;20020;-71
2021/07/23 06:24:07;;;;;;;18.05;13.02;;;589.10;1740.80;;;;;;5074342;28;20063;-72
2021/07/23 06:26:37;;;;;;;24.33;13.10;;;589.20;1740.80;;;;;;5056680;28;20051;-71
2021/07/23 06:29:03;;;;;;;22.08;12.95;;;589.30;1740.80;;;;;;5074528;28;20381;-72
2021/07/23 06:31:29;;;;;;;18.85;13.52;;;589.30;1740.80;;;;;;5074640;28;20427;-72
2021/07/23 06:33:55;;;;;;;20.35;12.18;;;589.40;1740.80;;;;;;5073986;28;20032;-73
2021/07/23 06:36:22;;;;;;;19.55;13.07;;;589.40;1715.20;;;;;;5074116;28;20024;-71
2021/07/23 06:38:47;;;;;;;19.35;11.75;;;589.50;1715.20;;;;;;5074041;28;20059;-72
2021/07/23 06:41:13;;;;;;;13.48;9.48;;;589.60;1715.20;;;;;;5074008;28;20052;-72
2021/07/23 06:43:39;;;;;;;14.68;10.98;;;589.60;1715.20;;;;;;5073949;28;20024;-71
2021/07/23 06:46:05;;;;;;;20.80;12.23;;;614.40;1689.60;;;;;;5074030;28;20158;-72
2021/07/23 06:48:32;;;;;;;20.73;12.18;;;614.40;1689.60;;;;;;5073898;28;20350;-73
2021/07/23 06:50:58;;;;;;;19.58;12.15;;;614.40;1689.60;;;;;;5073744;28;20354;-72
2021/07/23 06:53:24;;;;;;;18.70;12.98;;;614.60;1715.20;;;;;;5072296;28;20146;-72
2021/07/23 06:55:50;;;;;;;20.13;11.02;;;614.70;1689.60;;;;;;5073348;28;20048;-72
2021/07/23 06:58:16;;;;;;;26.33;13.20;;;614.70;1664.00;;;;;;5073896;28;20480;-72
2021/07/23 07:00:41;;;;;;;19.70;11.38;;;614.80;1664.00;;;;;;5073778;28;20101;-71
2021/07/23 07:03:08;;;;;;;13.90;9.45;;;614.90;1664.00;;;;;;5055790;28;20028;-72
2021/07/23 07:05:34;;;;;;;17.08;10.15;;;615.00;1664.00;;;;;;5073716;28;20052;-72
2021/07/23 07:08:00;;;;;;;18.25;11.00;;;615.00;1664.00;;;;;;5055700;28;20385;-72
2021/07/23 07:10:27;;;;;;;18.20;10.45;;;615.10;1638.40;;;;;;5073134;28;20106;-72
2021/07/23 07:12:58;;;;;;;24.13;9.40;;;615.10;1638.40;;;;;;5070638;28;20056;-72
2021/07/23 07:15:24;;;;;;;19.67;9.73;;;615.20;1612.80;;;;;;5073454;28;20036;-72
2021/07/23 07:18:00;;;;;;;18.05;11.18;;;615.20;1612.80;;;;;;5073170;28;20024;-72
2021/07/23 07:20:27;;;;;;;25.92;12.10;;;615.30;1612.80;;;;;;5073535;28;20416;-86
2021/07/23 07:22:53;;;;;;;33.15;11.93;;;615.30;1612.80;;;;;;5055257;28;20027;-72
2021/07/23 07:25:23;;;;;;;25.35;9.15;;;640.00;1638.40;;;;;;5073335;28;20103;-75
2021/07/23 07:27:49;;;;;;;30.17;12.02;;;640.10;1587.20;;;;;;5055548;28;20028;-70
2021/07/23 07:30:16;;;;;;;12.00;8.60;;;640.20;1587.20;;;;;;5055018;28;20403;-72
2021/07/23 07:32:42;;;;;;;15.85;8.48;;;640.20;1536.00;;;;;;5069089;28;20028;-72
2021/07/23 07:35:08;;;;;;;49.50;12.40;;;640.20;1536.00;;;;;;5072973;28;20032;-72
2021/07/23 07:37:34;;;;;;;16.15;8.27;;;640.20;1587.20;;;;;;5072315;28;20027;-72
2021/07/23 07:40:00;;;;;;;17.35;7.53;;;640.30;1561.60;;;;;;5072306;28;20037;-71
2021/07/23 07:42:26;;;;;;;23.38;9.68;;;640.30;1536.00;;;;;;5070902;28;20029;-71
2021/07/23 07:44:52;;;;;;;17.33;8.48;;;640.30;1510.40;;;;;;5071922;28;20029;-71
2021/07/23 07:47:18;;;;;;;43.25;10.80;;;640.40;1484.80;;;;;;5071797;28;20017;-71
2021/07/23 07:49:44;;;;;;;57.95;11.43;;;640.50;1561.60;;;;;;5071469;28;20487;-72
2021/07/23 07:52:10;;;;;;;37.35;10.02;;;640.50;1587.20;;;;;;5070608;28;20028;-72
2021/07/23 07:54:36;;;;;;;41.20;9.55;;;640.50;1587.20;;;;;;5068937;28;20060;-73
2021/07/23 07:57:09;;;;;;;33.80;10.10;;;640.60;1587.20;;;;;;5069556;28;20500;-72
2021/07/23 07:59:37;;;;;;;29.60;9.38;;;640.60;1561.60;;;;;;5068163;28;20352;-72
2021/07/23 08:02:06;;;;;;;28.80;8.85;;;640.60;1561.60;;;;;;5070202;28;20097;-71
2021/07/23 08:04:32;;;;;;;27.40;8.20;;;640.60;1587.20;;;;;;5070162;28;20033;-71
2021/07/23 08:06:59;;;;;;;19.63;8.40;;;640.60;1561.60;;;;;;5071255;28;20369;-71
2021/07/23 08:09:26;;;;;;;18.33;8.35;;;640.70;1561.60;;;;;;5071276;28;20017;-71
2021/07/23 08:11:51;;;;;;;17.85;7.93;;;640.60;1484.80;;;;;;5071269;28;20041;-71
2021/07/23 08:14:17;;;;;;;19.00;7.63;;;640.70;1484.80;;;;;;5071122;28;20037;-71
2021/07/23 08:16:43;;;;;;;19.55;7.75;;;640.70;1536.00;;;;;;5071490;28;20036;-71
2021/07/23 08:19:09;;;;;;;19.77;7.82;;;640.80;1536.00;;;;;;5070940;28;20017;-71
2021/07/23 08:21:36;;;;;;;13.85;7.47;;;640.80;1536.00;;;;;;5071275;28;20031;-70
2021/07/23 08:24:02;;;;;;;18.48;7.88;;;640.80;1561.60;;;;;;5070665;28;20055;-71
2021/07/23 08:26:29;;;;;;;12.68;7.32;;;640.80;1536.00;;;;;;5071296;28;20031;-71
2021/07/23 08:28:54;;;;;;;15.50;7.70;;;640.80;1536.00;;;;;;5070960;28;20083;-71
2021/07/23 08:31:21;;;;;;;26.63;8.43;;;640.80;1561.60;;;;;;5056289;28;20361;-70
2021/07/23 08:33:47;;;;;;;26.88;7.75;;;640.80;1561.60;;;;;;5074395;28;20017;-71
2021/07/23 08:36:13;;;;;;;11.63;6.65;;;640.80;1536.00;;;;;;5074717;28;20066;-72
2021/07/23 08:38:39;;;;;;;20.55;7.97;;;665.60;1536.00;;;;;;5074880;28;20013;-71
2021/07/23 08:41:05;;;;;;;17.23;7.07;;;640.80;1510.40;;;;;;5074531;28;20031;-71
2021/07/23 08:43:31;;;;;;;16.27;7.25;;;640.90;1510.40;;;;;;5074395;28;20020;-72
2021/07/23 08:45:57;;;;;;;35.95;8.02;;;640.80;1510.40;;;;;;5072474;28;20511;-72
2021/07/23 08:48:24;;;;;;;23.58;7.93;;;665.60;1536.00;;;;;;5058059;28;20036;-73
2021/07/23 08:50:50;;;;;;;28.15;6.88;;;665.60;1536.00;;;;;;5057928;28;20020;-71
2021/07/23 08:53:16;;;;;;;29.48;7.95;;;665.60;1484.80;;;;;;5075637;28;20031;-72
2021/07/23 08:55:42;;;;;;;20.38;6.97;;;665.60;1536.00;;;;;;5075325;28;20040;-72
2021/07/23 08:58:11;;;;;;;43.33;8.35;;;665.60;1510.40;;;;;;5074914;28;20025;-71
2021/07/23 09:00:38;;;;;;;40.42;9.35;;;665.60;1536.00;;;;;;5074366;28;20017;-71
2021/07/23 09:03:08;;;;;;;33.00;8.52;;;665.60;1536.00;;;;;;5074242;28;20473;-71
2021/07/23 09:05:40;;;;;;;28.08;8.68;;;665.60;1536.00;;;;;;5056233;28;20086;-72
2021/07/23 09:08:17;;;;;;;37.10;8.77;;;665.60;1536.00;;;;;;5074497;28;20023;-71
2021/07/23 09:10:45;;;;;;;18.27;6.60;;;665.60;1536.00;;;;;;5056336;28;20028;-72
2021/07/23 09:13:19;;;;;;;15.60;5.57;;;665.60;1459.20;;;;;;5075265;28;20104;-71
2021/07/23 09:15:45;;;;;;;26.00;6.38;;;665.70;1484.80;;;;;;5075310;28;20032;-72
2021/07/23 09:18:30;;;;;;;80.38;12.82;;;665.70;1484.80;;;;;;5075339;28;20078;-72
2021/07/23 09:21:04;;;;;;;64.93;8.68;;;665.70;1536.00;;;;;;5075222;28;20384;-71
2021/07/23 09:23:32;;;;;;;13.38;5.55;;;665.70;1536.00;;;;;;5075230;28;20383;-71
2021/07/23 09:26:10;;;;;;;49.42;8.32;;;665.70;1408.00;;;;;;5074536;28;20016;-70
2021/07/23 09:28:41;;;;;;;48.38;8.40;;;665.70;1510.40;;;;;;5074965;28;20031;-71
2021/07/23 09:31:08;;;;;;;83.10;9.43;;;665.70;1510.40;;;;;;5075022;28;20392;-71
2021/07/23 09:33:41;;;;;;;70.35;8.48;;;665.70;1510.40;;;;;;5075023;28;20028;-71
2021/07/23 09:36:12;;;;;;;52.47;9.00;;;665.70;1484.80;;;;;;5073370;28;20241;-72
2021/07/23 09:38:39;;;;;;;65.95;10.75;;;665.70;1510.40;;;;;;5073158;28;20021;-71
2021/07/23 09:41:08;;;;;;;17.73;5.57;;;665.70;1510.40;;;;;;5072709;28;20619;-71
2021/07/23 09:43:43;;;;;;;38.55;7.05;;;665.70;1382.40;;;;;;5054738;28;20024;-71
2021/07/23 09:46:17;;;;;;;30.35;6.80;;;665.80;1459.20;;;;;;5072940;28;20028;-71
2021/07/23 09:48:44;;;;;;;36.72;7.10;;;665.70;1459.20;;;;;;5072856;28;20020;-72
2021/07/23 09:51:10;;;;;;;38.95;8.75;;;665.70;1433.60;;;;;;5056388;28;20078;-72
2021/07/23 09:53:36;;;;;;;48.78;8.98;;;665.70;1459.20;;;;;;5074384;28;20025;-73
2021/07/23 09:56:06;;;;;;;43.03;9.45;;;665.70;1484.80;;;;;;5074289;28;20496;-72
2021/07/23 09:58:39;;;;;;;45.97;8.13;;;665.70;1459.20;;;;;;5074567;28;20028;-72
2021/07/23 10:01:10;;;;;;;60.08;8.35;;;665.70;1459.20;;;;;;5074301;28;20024;-72
2021/07/23 10:03:48;;;;;;;56.90;8.00;;;665.70;1484.80;;;;;;5074289;28;20024;-72
2021/07/23 10:06:33;;;;;;;38.75;8.05;;;665.80;1433.60;;;;;;5074170;28;20033;-72
2021/07/23 10:09:10;;;;;;;45.17;8.02;;;665.70;1484.80;;;;;;5074521;28;20035;-72
2021/07/23 10:11:40;;;;;;;40.22;7.32;;;665.80;1484.80;;;;;;5074470;28;20372;-71
2021/07/23 10:14:10;;;;;;;33.25;6.90;;;665.70;1484.80;;;;;;5055974;28;20081;-71
2021/07/23 10:16:39;;;;;;;23.27;6.07;;;665.80;1484.80;;;;;;5055606;28;20028;-71
2021/07/23 10:19:07;;;;;;;31.08;7.22;;;665.80;1433.60;;;;;;5073781;28;20049;-73
2021/07/23 10:21:33;;;;;;;21.13;6.60;;;665.80;1484.80;;;;;;5071046;28;20071;-71
2021/07/23 10:24:00;;;;;;;15.35;6.93;;;665.80;1459.20;;;;;;5073330;28;20016;-73
2021/07/23 10:26:31;;;;;;;28.42;7.10;;;665.80;1484.80;;;;;;5073384;28;20033;-72
2021/07/23 10:28:58;;;;;;;11.77;5.95;;;665.80;1484.80;;;;;;5071408;28;20040;-72
2021/07/23 10:31:32;;;;;;;15.93;6.28;;;665.80;1459.20;;;;;;5055324;28;20028;-72
2021/07/23 10:34:06;;;;;;;24.90;6.25;;;665.80;1484.80;;;;;;5053242;28;20028;-72
2021/07/23 10:36:32;;;;;;;11.48;6.20;;;665.80;1484.80;;;;;;5073130;28;20028;-72
2021/07/23 10:39:07;;;;;;;18.38;6.28;;;665.80;1382.40;;;;;;5073497;28;20025;-71
2021/07/23 10:42:03;;;;;;;94.20;10.13;;;665.90;1484.80;;;;;;5055691;28;20028;-70
2021/07/23 10:44:28;;;;;;;34.17;6.85;;;665.90;1459.20;;;;;;5073508;28;20021;-71
2021/07/23 10:47:02;;;;;;;106.47;12.25;;;665.90;1484.80;;;;;;5073372;28;20556;-72
2021/07/23 10:49:31;;;;;;;78.18;9.02;;;666.00;1433.60;;;;;;5073254;28;20020;-73
2021/07/23 10:52:01;;;;;;;13.95;5.63;;;666.00;1484.80;;;;;;5072197;28;20032;-71
2021/07/23 10:54:29;;;;;;;26.85;7.70;;;666.00;1433.60;;;;;;5073314;28;20032;-72
2021/07/23 10:56:58;;;;;;;83.05;10.23;;;666.10;1459.20;;;;;;5073026;28;20083;-71
2021/07/23 10:59:42;;;;;;;94.65;9.35;;;666.10;1484.80;;;;;;5073372;28;20033;-73
2021/07/23 11:02:10;;;;;;;49.70;8.07;;;666.00;1484.80;;;;;;5073091;28;20545;-72
2021/07/23 11:04:38;;;;;;;24.98;6.97;;;666.00;1484.80;;;;;;5055328;28;20468;-72
2021/07/23 11:07:05;;;;;;;34.15;6.55;;;666.00;1484.80;;;;;;5055244;28;20032;-72
2021/07/23 11:09:34;;;;;;;23.80;6.88;;;666.00;1484.80;;;;;;5073289;28;20021;-72
2021/07/23 11:12:20;;;;;;;23.58;6.35;;;666.00;1484.80;;;;;;5073177;28;20458;-71
2021/07/23 11:15:03;;;;;;;11.23;5.80;;;666.00;1459.20;;;;;;5073414;28;20029;-72
2021/07/23 11:17:30;;;;;;;16.98;6.18;;;666.10;1408.00;;;;;;5073256;28;20523;-72
2021/07/23 11:20:01;;;;;;;18.35;5.85;;;666.10;1433.60;;;;;;5073247;28;20059;-71
2021/07/23 11:22:32;;;;;;;21.83;6.13;;;666.10;1459.20;;;;;;5073069;28;20021;-72
2021/07/23 11:25:09;;;;;;;9.65;5.32;;;666.10;1408.00;;;;;;5073254;28;20027;-73
2021/07/23 11:27:37;;;;;;;14.80;5.72;;;666.10;1459.20;;;;;;5073056;28;20028;-71
2021/07/23 11:30:26;;;;;;;22.00;6.03;;;666.10;1459.20;;;;;;5073042;28;20021;-72
2021/07/23 11:32:55;;;;;;;22.92;6.05;;;666.10;1459.20;;;;;;5072308;28;20522;-74
2021/07/23 11:35:26;;;;;;;19.85;5.80;;;666.10;1459.20;;;;;;5072558;28;20036;-75
2021/07/23 11:37:54;;;;;;;18.17;5.63;;;666.30;1433.60;;;;;;5054464;28;20017;-75
2021/07/23 11:40:25;;;;;;;19.80;5.90;;;666.30;1433.60;;;;;;5072614;28;20354;-75
2021/07/23 11:42:54;;;;;;;14.90;6.47;;;666.20;1459.20;;;;;;5072104;28;20024;-74
2021/07/23 11:45:35;;;;;;;10.52;5.60;;;666.20;1433.60;;;;;;5054403;28;20029;-75
2021/07/23 11:48:09;;;;;;;10.07;5.07;;;666.20;1433.60;;;;;;5054906;28;20488;-75
2021/07/23 11:50:36;;;;;;;37.05;6.72;;;666.30;1382.40;;;;;;5073133;28;20082;-74
2021/07/23 11:53:05;;;;;;;25.65;5.80;;;666.30;1433.60;;;;;;5071594;28;20476;-80
2021/07/23 11:55:42;;;;;;;26.80;6.45;;;666.30;1433.60;;;;;;5054840;28;20094;-78
2021/07/23 11:58:28;;;;;;;36.42;7.07;;;666.30;1433.60;;;;;;5054872;28;20071;-75
2021/07/23 12:00:55;;;;;;;20.67;6.43;;;666.20;1459.20;;;;;;5054919;28;20477;-71
2021/07/23 12:03:23;;;;;;;51.08;8.75;;;666.30;1356.80;;;;;;5072518;28;20032;-71
2021/07/23 12:05:51;;;;;;;45.38;8.70;;;666.30;1433.60;;;;;;5076459;28;20102;-72